Jacumba, CA

2:58 PM PDT on September 01, 2015 (GMT -0700)
J-town | | Change Station
CLOSE
Current Station
Personal Weather Station
Location: Jacumba, CA
Elevation: 2799 ft
Nearby Weather Stations

Elev 2799 ft 32.62 °N, 116.19 °W | Updated 12 minutes ago

Partly Cloudy
Partly Cloudy
95.0 °F
Feels Like 91 °F
N
4.5
Wind Variable Wind from West
Gusts 9.8 mph

Today
High -- | Low -- °F
--% Chance of Precip.
Yesterday
High -- | Low -- °F
Precip. -- in
6:19 AM 7:09 PM
Waning Gibbous, 86% visible
Pressure 29.83 in
Visibility -9999.0 miles
Clouds
Heat Index 91 °F
Dew Point 46 °F
Humidity 19%
Rainfall in
Snow Depth Not available.
UV 0.0 out of 12
Pollen 6.70 out of 12
Air Quality Not available.
Flu Activity Not available.
METAR KCZZ 012152Z AUTO 22013KT 29/09 A2992 RMK AO1 SLP101 T02890094
Pressure 29.83 in
Visibility -9999.0 miles
Clouds
Heat Index 91 °F
Dew Point 46 °F
Humidity 19%
Rainfall in
Snow Depth Not available.
UV 0.0 out of 12
Pollen 6.70 out of 12
Air Quality Not available.
Flu Activity Not available.
METAR KCZZ 012152Z AUTO 22013KT 29/09 A2992 RMK AO1 SLP101 T02890094

10-Day Weather Forecast

×

Almanac

Astronomy

Sep. 01, 2015 Rise Set
Actual Time
Civil Twilight
Nautical Twilight
Astronomical Twilight
Moon
Length of Visible Light
Length of Day
Tomorrow will be .
, % of the Moon is Illuminated

Today's Extremes

State Highs State Lows

Community

WunderPhotos

Upload Photos

1,851,628 photos uploaded!

WunderBlogs® & News

Nearby

Air Quality

  Air Quality AQ Index Pollutant
Not available.

Snow Depth

Station Depth Elevation

Earthquake Activity

City Distance Mag. Time & Date
Minimum magnitude displayed is 2.5.

Coastal Water Temperatures

Place Temperature

Stations

Nearby Weather Stations

Station Location Temp. Windchill Dew Point Humidity Wind Precip. Elev Updated Type